Time;durP1;ratioP1;P1;durP2;ratioP2;P2;SDS_P1;SDS_P2;PMS_P1;PMS_P2;Temp;Humidity;BMP_temperature;BMP_pressure;BME280_temperature;BME280_humidity;BME280_pressure;Samples;Min_cycle;Max_cycle;Signal;HPM_P1;HPM_P2
2022/12/27 00:01:17;;;;;;;13.65;1.33;;;3.20;99.90;;;;;;5035947;28;20060;-64
2022/12/27 00:03:43;;;;;;;7.10;0.98;;;2.80;99.90;;;;;;5034138;28;20118;-65
2022/12/27 00:06:12;;;;;;;9.43;0.98;;;2.80;99.90;;;;;;5036843;28;20045;-65
2022/12/27 00:08:38;;;;;;;7.90;0.60;;;2.80;99.90;;;;;;5036503;28;20498;-64
2022/12/27 00:11:09;;;;;;;12.13;1.10;;;2.80;99.90;;;;;;5036736;28;20044;-64
2022/12/27 00:13:35;;;;;;;10.02;1.38;;;3.20;99.90;;;;;;5037739;28;20115;-64
2022/12/27 00:16:10;;;;;;;11.77;0.90;;;3.20;99.90;;;;;;5038243;28;20504;-64
2022/12/27 00:18:38;;;;;;;8.73;0.73;;;3.10;99.90;;;;;;5065430;28;20679;-64
2022/12/27 00:21:05;;;;;;;9.52;0.80;;;3.30;99.90;;;;;;5035813;28;20039;-63
2022/12/27 00:23:33;;;;;;;10.32;1.13;;;3.20;99.90;;;;;;5036863;28;20044;-64
2022/12/27 00:26:04;;;;;;;10.25;0.77;;;3.10;99.90;;;;;;5035134;28;20051;-64
2022/12/27 00:28:34;;;;;;;6.95;0.90;;;3.50;99.90;;;;;;5025431;28;20706;-63
2022/12/27 00:31:01;;;;;;;10.48;1.02;;;3.20;99.90;;;;;;5037809;28;20036;-64
2022/12/27 00:33:28;;;;;;;13.27;1.10;;;3.30;99.90;;;;;;5036141;28;20439;-63
2022/12/27 00:35:54;;;;;;;13.50;1.58;;;3.20;99.90;;;;;;5033815;28;20243;-64
2022/12/27 00:38:20;;;;;;;10.98;1.30;;;3.60;99.90;;;;;;5036534;28;21307;-64
2022/12/27 00:40:46;;;;;;;8.77;0.70;;;3.60;99.90;;;;;;5035019;28;20114;-64
2022/12/27 00:43:12;;;;;;;12.13;1.02;;;3.50;99.90;;;;;;5035495;28;20229;-63
2022/12/27 00:45:38;;;;;;;8.55;0.70;;;3.20;99.90;;;;;;5038129;28;20045;-64
2022/12/27 00:48:04;;;;;;;13.60;1.27;;;3.40;99.90;;;;;;5018848;28;20629;-63
2022/12/27 00:50:29;;;;;;;10.73;1.00;;;3.60;99.90;;;;;;5065954;28;21944;-64
2022/12/27 00:52:55;;;;;;;7.93;0.80;;;3.80;99.90;;;;;;5034993;28;20356;-63
2022/12/27 00:55:21;;;;;;;8.75;0.68;;;3.70;99.90;;;;;;5002130;28;20116;-63
2022/12/27 00:57:46;;;;;;;12.15;1.25;;;3.30;99.90;;;;;;5034443;28;20053;-63
2022/12/27 01:00:13;;;;;;;10.18;0.85;;;3.40;99.90;;;;;;5037341;28;20040;-63
2022/12/27 01:02:38;;;;;;;9.82;1.05;;;3.70;99.90;;;;;;5035927;28;20047;-64
2022/12/27 01:05:05;;;;;;;10.82;0.93;;;3.80;95.20;;;;;;5035313;28;20049;-64
2022/12/27 01:07:31;;;;;;;9.40;1.08;;;4.00;99.90;;;;;;5033189;28;21243;-65
2022/12/27 01:09:57;;;;;;;9.68;0.70;;;3.90;92.00;;;;;;5037752;28;20424;-62
2022/12/27 01:12:22;;;;;;;8.52;0.93;;;4.00;99.90;;;;;;5034466;28;20048;-63
2022/12/27 01:14:48;;;;;;;12.57;1.50;;;3.60;1.00;;;;;;5034035;28;20045;-63
2022/12/27 01:17:14;;;;;;;11.25;1.27;;;3.90;99.90;;;;;;5035845;28;20048;-63
2022/12/27 01:19:40;;;;;;;11.88;1.00;;;3.50;99.90;;;;;;5034212;28;20045;-64
2022/12/27 01:22:06;;;;;;;11.15;0.75;;;3.50;99.90;;;;;;5048352;28;20091;-63
2022/12/27 01:24:32;;;;;;;8.77;0.80;;;3.40;99.90;;;;;;5035500;28;20068;-64
2022/12/27 01:26:58;;;;;;;11.70;1.38;;;3.40;99.90;;;;;;5034315;28;20398;-62
2022/12/27 01:29:25;;;;;;;10.40;1.10;;;3.80;99.90;;;;;;5036160;28;20049;-64
2022/12/27 01:31:51;;;;;;;13.00;1.02;;;3.90;99.90;;;;;;5037135;28;20052;-66
2022/12/27 01:34:17;;;;;;;17.33;1.75;;;3.80;99.90;;;;;;5035090;28;20095;-67
2022/12/27 01:36:43;;;;;;;10.15;1.23;;;3.80;99.90;;;;;;5035390;28;20064;-63
2022/12/27 01:39:14;;;;;;;8.60;0.85;;;4.10;99.90;;;;;;5033557;28;20102;-63
2022/12/27 01:44:39;;;;;;;12.10;0.70;;;3.90;99.90;;;;;;5034899;28;20037;-63
2022/12/27 01:47:11;;;;;;;12.45;1.27;;;4.30;99.90;;;;;;5034373;28;20049;-63
2022/12/27 01:49:44;;;;;;;12.60;1.27;;;4.20;99.90;;;;;;5036185;28;20041;-62
2022/12/27 01:52:12;;;;;;;11.32;1.15;;;4.30;99.90;;;;;;5033674;28;20805;-64
2022/12/27 01:54:38;;;;;;;10.65;1.45;;;4.00;99.90;;;;;;5015908;28;20502;-63
2022/12/27 01:57:05;;;;;;;9.30;1.17;;;4.30;99.90;;;;;;5037062;28;20056;-64
2022/12/27 01:59:32;;;;;;;14.05;1.30;;;4.00;99.90;;;;;;5035209;28;20457;-64
2022/12/27 02:01:58;;;;;;;14.15;1.25;;;4.40;99.90;;;;;;5035914;28;20494;-66
2022/12/27 02:04:26;;;;;;;11.23;1.00;;;3.80;99.90;;;;;;5035246;28;20052;-65
2022/12/27 02:06:52;;;;;;;8.18;0.70;;;4.30;99.90;;;;;;5033199;28;20037;-65
2022/12/27 02:09:45;;;;;;;13.32;1.00;;;3.60;99.90;;;;;;5017340;28;20263;-68
2022/12/27 02:12:12;;;;;;;7.00;1.02;;;4.50;99.90;;;;;;5035750;28;20461;-65
2022/12/27 02:14:48;;;;;;;11.00;0.80;;;4.60;99.90;;;;;;5034639;28;20271;-64
2022/12/27 02:17:19;;;;;;;8.23;0.90;;;4.20;99.90;;;;;;5036839;28;20075;-66
2022/12/27 02:19:44;;;;;;;13.10;1.17;;;4.40;99.90;;;;;;5036803;28;20071;-67
2022/12/27 02:25:49;;;;;;;14.82;1.33;;;4.50;99.90;;;;;;5032763;28;20511;-66
2022/12/27 02:28:50;;;;;;;16.27;1.88;;;4.50;99.90;;;;;;5017182;28;20084;-66
2022/12/27 02:31:27;;;;;;;13.40;1.02;;;4.30;99.90;;;;;;5033633;28;20609;-65
2022/12/27 02:33:56;;;;;;;13.82;1.73;;;3.70;99.90;;;;;;5035066;28;20394;-67
2022/12/27 02:36:33;;;;;;;18.13;2.13;;;4.30;99.90;;;;;;5066795;28;20038;-66
2022/12/27 02:39:01;;;;;;;15.50;1.52;;;4.70;99.90;;;;;;5033961;28;20037;-66
2022/12/27 02:53:04;;;;;;;13.82;1.00;;;4.70;99.90;;;;;;5019689;28;20223;-67
2022/12/27 02:58:47;;;;;;;9.32;0.90;;;4.30;99.90;;;;;;5031761;28;20041;-68
2022/12/27 03:04:28;;;;;;;13.32;0.90;;;3.20;99.90;;;;;;5035327;28;20056;-68
2022/12/27 03:07:12;;;;;;;12.70;1.48;;;3.30;99.90;;;;;;5017187;28;20041;-66
2022/12/27 03:15:57;;;;;;;14.32;0.95;;;3.30;99.90;;;;;;5033906;28;20414;-67
2022/12/27 03:18:45;;;;;;;12.27;0.90;;;4.20;99.90;;;;;;5066079;28;20049;-68
2022/12/27 03:26:50;;;;;;;5.40;0.65;;;4.20;99.90;;;;;;5035517;28;20037;-67
2022/12/27 03:35:02;;;;;;;12.35;1.05;;;4.10;99.90;;;;;;5034090;28;20877;-66
2022/12/27 03:40:26;;;;;;;15.00;1.30;;;3.30;99.90;;;;;;5032843;28;20045;-67
2022/12/27 03:43:12;;;;;;;14.85;1.10;;;3.90;99.90;;;;;;5033274;28;20315;-67
2022/12/27 03:48:27;;;;;;;10.73;1.13;;;4.00;99.90;;;;;;5036276;28;20124;-67
2022/12/27 03:51:03;;;;;;;14.90;1.15;;;3.70;99.90;;;;;;5069319;28;20490;-66
2022/12/27 03:53:40;;;;;;;11.82;0.93;;;4.60;99.90;;;;;;5068413;28;20457;-67
2022/12/27 03:56:06;;;;;;;10.43;1.33;;;3.30;99.90;;;;;;5037138;28;20470;-67
2022/12/27 03:58:32;;;;;;;18.02;1.27;;;4.20;99.90;;;;;;5021084;28;20072;-67
2022/12/27 04:00:58;;;;;;;13.00;1.33;;;4.40;99.90;;;;;;5035736;28;20300;-67
2022/12/27 04:03:24;;;;;;;12.82;1.70;;;4.30;99.90;;;;;;5016326;28;20541;-67
2022/12/27 04:05:50;;;;;;;21.80;1.50;;;3.50;99.90;;;;;;5036616;28;20049;-68
2022/12/27 04:35:43;;;;;;;14.88;1.30;;;3.50;99.90;;;;;;5050349;28;20048;-67
2022/12/27 04:38:09;;;;;;;11.68;1.20;;;3.60;99.90;;;;;;5068234;28;20040;-68
2022/12/27 04:57:08;;;;;;;14.68;1.23;;;4.40;99.90;;;;;;5035759;28;20883;-68
2022/12/27 05:02:18;;;;;;;11.52;1.33;;;4.10;99.90;;;;;;5033993;28;20045;-68
2022/12/27 05:04:45;;;;;;;12.20;1.02;;;3.20;99.90;;;;;;5033400;28;20137;-68
2022/12/27 05:15:29;;;;;;;10.15;1.15;;;3.70;99.90;;;;;;5034870;28;20094;-66
2022/12/27 05:17:56;;;;;;;10.52;1.02;;;4.00;99.90;;;;;;5035515;28;20049;-67
2022/12/27 05:20:22;;;;;;;9.30;0.60;;;3.20;99.90;;;;;;4997876;28;20076;-67
2022/12/27 05:25:36;;;;;;;11.30;1.00;;;3.30;99.90;;;;;;5036713;28;20128;-67
2022/12/27 05:28:07;;;;;;;12.52;1.00;;;3.30;99.90;;;;;;5064857;28;20487;-70
2022/12/27 05:30:37;;;;;;;13.10;1.13;;;4.10;99.90;;;;;;5035632;28;20486;-67
2022/12/27 05:33:03;;;;;;;12.20;1.33;;;3.70;99.90;;;;;;5035305;28;20068;-67
2022/12/27 05:35:29;;;;;;;10.98;1.00;;;3.20;99.90;;;;;;5031813;28;20048;-67
2022/12/27 05:37:55;;;;;;;15.98;1.05;;;3.10;99.90;;;;;;5017419;28;20044;-67
2022/12/27 05:40:22;;;;;;;10.15;0.90;;;3.40;99.90;;;;;;5066756;28;20050;-67
2022/12/27 05:42:47;;;;;;;12.57;1.13;;;3.90;99.90;;;;;;5034663;28;20083;-67
2022/12/27 05:45:13;;;;;;;11.23;1.27;;;3.40;99.90;;;;;;5035705;28;20041;-67
2022/12/27 05:47:40;;;;;;;8.68;1.00;;;3.10;99.90;;;;;;5033672;28;20040;-68
2022/12/27 05:50:07;;;;;;;11.70;0.90;;;3.50;99.90;;;;;;5017893;28;20352;-67
2022/12/27 05:52:33;;;;;;;13.98;1.27;;;3.10;99.90;;;;;;5013494;28;20126;-69
2022/12/27 05:55:01;;;;;;;9.63;0.80;;;3.80;99.90;;;;;;5034840;28;20634;-67
2022/12/27 05:57:27;;;;;;;11.38;1.20;;;2.80;99.90;;;;;;5064991;28;20052;-69
2022/12/27 05:59:52;;;;;;;7.47;0.75;;;2.70;99.90;;;;;;5034252;28;20122;-68
2022/12/27 06:02:18;;;;;;;14.05;1.42;;;3.60;99.90;;;;;;5035954;28;20049;-67
2022/12/27 06:04:44;;;;;;;13.48;1.25;;;3.00;99.90;;;;;;5036172;28;20099;-68
2022/12/27 06:07:10;;;;;;;14.02;1.42;;;2.90;99.90;;;;;;5014488;28;20041;-66
2022/12/27 06:09:36;;;;;;;14.43;1.30;;;2.80;99.90;;;;;;5033374;28;20529;-68
2022/12/27 06:12:02;;;;;;;13.80;1.25;;;3.70;99.90;;;;;;5017212;28;20067;-67
2022/12/27 06:14:28;;;;;;;20.73;1.42;;;2.70;99.90;;;;;;5032671;28;20378;-67
2022/12/27 06:16:53;;;;;;;12.68;1.10;;;3.00;99.90;;;;;;5035423;28;20049;-66
2022/12/27 06:19:19;;;;;;;15.65;1.60;;;3.00;99.90;;;;;;5034273;28;20045;-66
2022/12/27 06:21:45;;;;;;;15.52;1.50;;;3.40;99.90;;;;;;5033010;28;20133;-67
2022/12/27 06:24:11;;;;;;;15.45;1.17;;;3.80;99.90;;;;;;4998505;28;20175;-65
2022/12/27 06:26:36;;;;;;;18.35;2.25;;;3.80;99.90;;;;;;5034580;28;20059;-68
2022/12/27 06:29:02;;;;;;;14.07;1.58;;;2.80;99.90;;;;;;5034415;28;20801;-66
2022/12/27 06:31:28;;;;;;;13.43;1.55;;;3.30;99.90;;;;;;5033761;28;20048;-68
2022/12/27 06:33:54;;;;;;;17.23;2.38;;;4.10;99.90;;;;;;5035000;28;20060;-67
2022/12/27 06:36:29;;;;;;;24.25;2.58;;;4.10;99.90;;;;;;5017212;28;20057;-66
2022/12/27 06:38:55;;;;;;;16.25;2.00;;;3.10;99.90;;;;;;5030573;28;20505;-67
2022/12/27 06:41:22;;;;;;;23.33;2.53;;;4.20;99.90;;;;;;5047423;28;20060;-66
2022/12/27 06:43:51;;;;;;;18.60;1.90;;;4.20;99.90;;;;;;5034451;28;20770;-68
2022/12/27 06:46:17;;;;;;;17.73;1.55;;;3.10;99.90;;;;;;5032937;28;21515;-67
2022/12/27 06:48:44;;;;;;;14.80;1.67;;;3.30;99.90;;;;;;5035783;28;21058;-67
2022/12/27 06:51:11;;;;;;;15.30;2.08;;;4.10;99.90;;;;;;5065694;28;20033;-68
2022/12/27 06:53:37;;;;;;;19.83;1.80;;;4.10;99.90;;;;;;5032862;28;20128;-67
2022/12/27 06:56:07;;;;;;;18.35;2.40;;;3.70;99.90;;;;;;5031332;28;20049;-65
2022/12/27 06:58:33;;;;;;;18.40;1.70;;;4.00;99.90;;;;;;5066288;28;20509;-67
2022/12/27 07:01:25;;;;;;;17.77;1.67;;;4.40;99.90;;;;;;5033196;28;20041;-67
2022/12/27 07:03:56;;;;;;;22.13;2.90;;;4.40;99.90;;;;;;5033557;28;20582;-68
2022/12/27 07:06:23;;;;;;;20.00;2.63;;;3.40;99.90;;;;;;5035304;28;20071;-66
2022/12/27 07:08:50;;;;;;;16.50;1.80;;;3.80;99.90;;;;;;5014297;28;20056;-67
2022/12/27 07:11:17;;;;;;;19.33;1.73;;;4.40;99.90;;;;;;5014206;28;20049;-67
2022/12/27 07:13:46;;;;;;;17.70;1.65;;;4.30;99.90;;;;;;5034561;28;20051;-67
2022/12/27 07:16:14;;;;;;;14.48;2.13;;;3.30;99.90;;;;;;5033900;28;20033;-67
2022/12/27 07:18:40;;;;;;;15.40;1.52;;;3.40;99.90;;;;;;5035710;28;21434;-67
2022/12/27 07:21:11;;;;;;;22.80;1.85;;;4.20;99.90;;;;;;4989322;28;20084;-67
2022/12/27 07:23:37;;;;;;;22.23;2.95;;;4.00;99.90;;;;;;5036629;28;20500;-67
2022/12/27 07:26:11;;;;;;;14.93;2.10;;;3.40;99.90;;;;;;5036467;28;20679;-66
2022/12/27 07:28:37;;;;;;;19.90;1.58;;;2.90;99.90;;;;;;5035332;28;20529;-67
2022/12/27 07:31:15;;;;;;;14.82;1.58;;;3.90;99.90;;;;;;5003561;28;20033;-67
2022/12/27 07:33:42;;;;;;;17.45;2.00;;;3.80;99.90;;;;;;5037808;28;20450;-67
2022/12/27 07:36:21;;;;;;;16.77;2.08;;;3.70;99.90;;;;;;5039326;28;20194;-67
2022/12/27 07:38:47;;;;;;;17.23;2.58;;;3.00;99.90;;;;;;5036032;28;20490;-66
2022/12/27 07:41:14;;;;;;;19.05;2.38;;;2.70;99.90;;;;;;5038844;28;20072;-66
2022/12/27 07:43:40;;;;;;;21.90;3.63;;;2.20;99.90;;;;;;5035876;28;20163;-69
2022/12/27 07:46:08;;;;;;;19.73;2.80;;;2.80;99.90;;;;;;5036957;28;20443;-67
2022/12/27 07:48:34;;;;;;;22.40;2.72;;;3.40;99.90;;;;;;5020316;28;20450;-66
2022/12/27 07:51:00;;;;;;;18.30;2.80;;;3.00;99.90;;;;;;5039610;28;20518;-66
2022/12/27 07:53:26;;;;;;;15.18;2.58;;;3.30;99.90;;;;;;5039601;28;20076;-66
2022/12/27 07:55:52;;;;;;;18.52;2.33;;;3.10;99.90;;;;;;5021100;28;20052;-67
2022/12/27 07:58:18;;;;;;;12.45;1.60;;;2.10;99.90;;;;;;5037340;28;20158;-66
2022/12/27 08:02:54;;;;;;;17.98;2.88;;;3.10;99.90;;;;;;5052851;28;20842;-67
2022/12/27 08:05:19;;;;;;;18.38;2.78;;;2.70;99.90;;;;;;5036294;28;20131;-67
2022/12/27 08:07:45;;;;;;;24.27;2.75;;;2.60;99.90;;;;;;5019440;28;20680;-66
2022/12/27 08:10:10;;;;;;;14.23;1.83;;;3.60;99.90;;;;;;5052777;28;20410;-67
2022/12/27 08:12:36;;;;;;;21.15;2.50;;;3.30;99.90;;;;;;5052857;28;20033;-67
2022/12/27 08:15:02;;;;;;;16.80;2.13;;;2.80;99.90;;;;;;5011452;28;20362;-66
2022/12/27 08:17:28;;;;;;;17.15;2.35;;;3.00;99.90;;;;;;5050002;28;20075;-66
2022/12/27 08:19:54;;;;;;;20.15;2.50;;;2.30;99.90;;;;;;5050767;28;20040;-67
2022/12/27 08:22:21;;;;;;;16.13;2.10;;;2.80;99.90;;;;;;5051198;28;20048;-66
2022/12/27 08:24:47;;;;;;;17.73;2.47;;;3.40;99.90;;;;;;5034211;28;21316;-67
2022/12/27 08:27:20;;;;;;;17.90;2.35;;;3.10;99.90;;;;;;5049878;28;20134;-66
2022/12/27 08:29:46;;;;;;;15.65;2.22;;;2.10;99.90;;;;;;5048955;28;20052;-66
2022/12/27 08:32:12;;;;;;;14.57;2.45;;;2.00;99.90;;;;;;5049688;28;20060;-66
2022/12/27 08:34:38;;;;;;;20.98;2.40;;;2.40;99.90;;;;;;5005108;28;20398;-67
2022/12/27 08:37:03;;;;;;;11.07;1.63;;;3.20;99.90;;;;;;5034385;28;20047;-66
2022/12/27 08:39:29;;;;;;;16.75;1.77;;;2.20;99.90;;;;;;5032769;28;20080;-67
2022/12/27 08:41:55;;;;;;;17.55;2.58;;;2.40;99.90;;;;;;5049276;28;20044;-66
2022/12/27 08:44:21;;;;;;;14.90;1.55;;;2.30;99.90;;;;;;5052580;28;20248;-68
2022/12/27 08:46:47;;;;;;;14.00;1.77;;;2.60;99.90;;;;;;5047884;28;20406;-68
2022/12/27 08:49:12;;;;;;;12.32;1.88;;;3.70;99.90;;;;;;5030663;28;20211;-68
2022/12/27 08:51:38;;;;;;;18.58;2.42;;;2.60;99.90;;;;;;5032718;28;20048;-68
2022/12/27 08:54:04;;;;;;;15.32;1.75;;;2.90;99.90;;;;;;5049555;28;20059;-67
2022/12/27 08:56:30;;;;;;;18.02;2.40;;;2.80;99.90;;;;;;5050122;28;20484;-67
2022/12/27 08:58:55;;;;;;;15.13;2.00;;;3.10;99.90;;;;;;5051376;28;20044;-67
2022/12/27 09:01:21;;;;;;;21.52;2.50;;;3.90;99.90;;;;;;5048432;28;20053;-67
2022/12/27 09:03:47;;;;;;;21.50;2.33;;;3.60;99.90;;;;;;5032204;28;20284;-65
2022/12/27 09:06:18;;;;;;;11.43;1.45;;;3.90;99.90;;;;;;5050285;28;20036;-68
2022/12/27 09:08:46;;;;;;;17.98;1.95;;;4.10;99.90;;;;;;5033457;28;20413;-66
2022/12/27 09:11:18;;;;;;;16.90;1.80;;;4.00;99.90;;;;;;5050246;28;20106;-68
2022/12/27 09:13:44;;;;;;;15.15;1.55;;;3.90;99.90;;;;;;5022908;28;20133;-69
2022/12/27 09:16:15;;;;;;;13.82;1.55;;;3.90;99.90;;;;;;5021289;28;20049;-68
2022/12/27 09:18:41;;;;;;;17.27;1.95;;;4.00;99.90;;;;;;5019145;28;20493;-68
2022/12/27 09:21:12;;;;;;;17.40;2.35;;;3.40;99.90;;;;;;5035296;28;20475;-69
2022/12/27 09:23:39;;;;;;;14.75;1.92;;;3.30;99.90;;;;;;5018866;28;20041;-68
2022/12/27 09:26:23;;;;;;;16.15;2.00;;;4.00;99.90;;;;;;5036946;28;20044;-68
2022/12/27 09:28:50;;;;;;;14.57;1.50;;;3.70;99.90;;;;;;5018573;28;20402;-66
2022/12/27 09:31:18;;;;;;;13.90;1.25;;;3.90;99.90;;;;;;5039120;28;20065;-66
2022/12/27 09:33:43;;;;;;;16.67;1.60;;;4.60;99.90;;;;;;5034078;28;20076;-66
2022/12/27 09:36:15;;;;;;;9.50;1.40;;;3.60;99.90;;;;;;5017953;28;20140;-66
2022/12/27 09:38:42;;;;;;;14.27;1.60;;;4.00;99.90;;;;;;5038275;28;20103;-67
2022/12/27 09:41:44;;;;;;;16.48;2.35;;;4.70;99.90;;;;;;5020641;28;20045;-68
2022/12/27 09:44:30;;;;;;;9.13;1.20;;;4.20;99.90;;;;;;5036473;28;20344;-66
2022/12/27 09:47:24;;;;;;;17.95;2.10;;;3.90;99.90;;;;;;5036903;28;20555;-67
2022/12/27 09:50:14;;;;;;;16.30;1.43;;;4.20;99.90;;;;;;5032160;28;20053;-67
2022/12/27 09:53:09;;;;;;;10.00;1.73;;;4.20;99.90;;;;;;5051358;28;20045;-67
2022/12/27 09:55:43;;;;;;;12.50;1.60;;;4.90;99.90;;;;;;5037938;28;20049;-66
2022/12/27 09:58:20;;;;;;;21.33;1.92;;;5.00;99.90;;;;;;5020949;28;20597;-65
2022/12/27 10:00:49;;;;;;;15.82;1.80;;;4.40;99.90;;;;;;5022128;28;20057;-65
2022/12/27 10:03:25;;;;;;;14.15;1.70;;;4.80;99.90;;;;;;5038980;28;20060;-67
2022/12/27 10:06:27;;;;;;;15.52;1.42;;;5.20;99.90;;;;;;5035080;28;20045;-66
2022/12/27 10:09:11;;;;;;;16.95;2.30;;;4.80;99.90;;;;;;5038461;28;20045;-65
2022/12/27 10:11:45;;;;;;;10.93;1.67;;;5.40;99.90;;;;;;5039701;28;20047;-65
2022/12/27 10:14:28;;;;;;;11.07;1.88;;;5.80;99.90;;;;;;5037797;28;20103;-64
2022/12/27 10:17:18;;;;;;;12.83;1.40;;;5.90;99.90;;;;;;5011549;28;20080;-66
2022/12/27 10:20:03;;;;;;;12.82;2.13;;;6.80;99.90;;;;;;5038777;28;20133;-65
2022/12/27 10:22:33;;;;;;;12.60;1.48;;;7.20;99.90;;;;;;5032350;28;20047;-65
2022/12/27 10:25:03;;;;;;;14.30;1.90;;;7.30;99.90;;;;;;5017319;28;20398;-66
2022/12/27 10:27:29;;;;;;;16.40;1.55;;;7.30;99.90;;;;;;5038710;28;20060;-66
2022/12/27 10:29:58;;;;;;;14.80;1.88;;;7.30;99.90;;;;;;5018764;28;20519;-68
2022/12/27 10:32:25;;;;;;;13.95;1.65;;;7.60;99.90;;;;;;5036458;28;20079;-66
2022/12/27 10:34:56;;;;;;;10.95;1.50;;;8.00;99.90;;;;;;5036618;28;20141;-65
2022/12/27 10:37:21;;;;;;;7.28;1.63;;;8.10;99.90;;;;;;5034427;28;20566;-66
2022/12/27 10:39:47;;;;;;;11.40;1.70;;;8.10;99.90;;;;;;5020497;28;20127;-66
2022/12/27 10:42:35;;;;;;;11.80;1.70;;;8.30;99.90;;;;;;5037786;28;20268;-66
2022/12/27 10:45:41;;;;;;;12.73;3.15;;;8.50;99.90;;;;;;5037234;28;20060;-65
2022/12/27 10:48:15;;;;;;;8.65;1.30;;;8.70;99.90;;;;;;5003371;28;20139;-65
2022/12/27 10:51:06;;;;;;;11.90;1.60;;;8.20;1.00;;;;;;5036634;28;20057;-66
2022/12/27 10:53:40;;;;;;;12.98;1.77;;;7.70;99.90;;;;;;5025488;28;20047;-66
2022/12/27 10:56:29;;;;;;;12.95;1.55;;;7.20;99.90;;;;;;5035375;28;20174;-66
2022/12/27 10:59:09;;;;;;;12.00;1.20;;;6.60;1.00;;;;;;5019433;28;20334;-67
2022/12/27 11:01:35;;;;;;;13.23;1.45;;;6.40;99.90;;;;;;5033366;28;20146;-67
2022/12/27 11:04:17;;;;;;;11.77;1.42;;;6.40;99.90;;;;;;5036100;28;20402;-67
2022/12/27 11:06:44;;;;;;;12.55;1.52;;;6.70;99.90;;;;;;5034870;28;20144;-66
2022/12/27 11:09:26;;;;;;;9.65;1.40;;;7.20;99.90;;;;;;5031003;28;20775;-67
2022/12/27 11:12:13;;;;;;;16.05;1.48;;;7.20;99.90;;;;;;5035405;28;20378;-67
2022/12/27 11:15:03;;;;;;;12.10;1.55;;;7.00;99.90;;;;;;5035444;28;20048;-68
2022/12/27 11:17:36;;;;;;;11.32;1.52;;;6.50;1.00;;;;;;5035901;28;20094;-67
2022/12/27 11:20:11;;;;;;;11.00;1.13;;;6.80;99.90;;;;;;5036794;28;20091;-67
2022/12/27 11:22:49;;;;;;;12.05;1.50;;;7.00;99.90;;;;;;5036897;28;20044;-67
2022/12/27 11:25:15;;;;;;;9.85;1.55;;;7.30;99.90;;;;;;5014999;28;20585;-68
2022/12/27 11:27:49;;;;;;;11.30;1.63;;;7.50;99.90;;;;;;5034439;28;20364;-67
2022/12/27 11:30:30;;;;;;;9.15;1.63;;;7.70;99.90;;;;;;5034607;28;20116;-67
2022/12/27 11:33:16;;;;;;;10.02;1.20;;;8.00;99.90;;;;;;5017625;28;20044;-69
2022/12/27 11:35:49;;;;;;;11.57;2.72;;;8.20;86.50;;;;;;5035947;28;20053;-68
2022/12/27 11:38:23;;;;;;;14.23;2.83;;;8.70;33.30;;;;;;5019652;28;20053;-68
2022/12/27 11:41:10;;;;;;;13.68;1.50;;;9.20;1.00;;;;;;5046619;28;20045;-68
2022/12/27 11:43:41;;;;;;;;;;;9.60;1.00;;;;;;5019222;28;20045;-68
2022/12/27 11:46:17;;;;;;;11.48;1.40;;;9.60;99.90;;;;;;5035404;28;20388;-68
2022/12/27 11:48:45;;;;;;;8.57;1.05;;;9.70;99.90;;;;;;5036100;28;20152;-67
2022/12/27 11:51:42;;;;;;;9.90;1.70;;;9.80;99.90;;;;;;5037269;28;20032;-68
2022/12/27 11:54:44;;;;;;;8.98;1.30;;;9.70;99.90;;;;;;5018749;28;20364;-67
2022/12/27 11:57:31;;;;;;;9.18;1.42;;;9.70;99.90;;;;;;5034574;28;20097;-67
2022/12/27 12:00:28;;;;;;;9.73;1.50;;;9.60;99.90;;;;;;5019132;28;20045;-66
2022/12/27 12:03:35;;;;;;;11.20;1.27;;;9.20;99.90;;;;;;5033654;28;20056;-66
2022/12/27 12:06:25;;;;;;;14.27;1.70;;;8.60;99.90;;;;;;4928529;28;20057;-67
2022/12/27 12:09:09;;;;;;;8.45;1.70;;;8.50;99.90;;;;;;4956189;28;20054;-66
2022/12/27 12:11:56;;;;;;;11.43;1.42;;;8.70;99.90;;;;;;5005546;28;20235;-67
2022/12/27 12:14:27;;;;;;;10.90;1.23;;;9.10;99.90;;;;;;5035532;28;20570;-66
2022/12/27 12:16:53;;;;;;;13.32;1.38;;;9.70;99.90;;;;;;5018800;28;20569;-65
2022/12/27 12:19:40;;;;;;;11.43;1.70;;;10.00;99.90;;;;;;5035647;28;20047;-66
2022/12/27 12:22:24;;;;;;;8.07;1.08;;;10.20;99.90;;;;;;5035398;28;20052;-65
2022/12/27 12:25:08;;;;;;;8.65;1.25;;;10.10;99.90;;;;;;5018244;28;20306;-66
2022/12/27 12:27:37;;;;;;;8.73;1.10;;;10.00;99.90;;;;;;5031144;28;20056;-65
2022/12/27 12:30:36;;;;;;;9.60;1.38;;;9.60;99.90;;;;;;5018556;28;20434;-65
2022/12/27 12:33:23;;;;;;;14.65;1.20;;;9.00;99.90;;;;;;5034972;28;20212;-65
2022/12/27 12:36:23;;;;;;;11.48;1.35;;;8.20;99.90;;;;;;5035157;28;20041;-66
2022/12/27 12:39:36;;;;;;;14.32;1.38;;;7.80;99.90;;;;;;5034903;28;20041;-66
2022/12/27 12:42:19;;;;;;;9.90;1.52;;;7.40;99.90;;;;;;4956968;28;20202;-65
2022/12/27 12:45:27;;;;;;;12.82;1.67;;;7.60;99.90;;;;;;4953222;28;20046;-64
2022/12/27 12:48:07;;;;;;;16.00;3.35;;;7.90;99.90;;;;;;5032167;28;20128;-65
2022/12/27 12:51:20;;;;;;;9.88;1.65;;;8.30;99.90;;;;;;5037295;28;20041;-64
2022/12/27 12:54:04;;;;;;;15.25;2.30;;;8.30;99.90;;;;;;5008070;28;20131;-65
2022/12/27 12:56:29;;;;;;;;;;;8.00;99.90;;;;;;5040704;28;20123;-64
2022/12/27 12:59:14;;;;;;;11.43;1.05;;;7.50;99.90;;;;;;5019814;28;19986;-65
2022/12/27 13:02:01;;;;;;;9.48;0.90;;;7.50;99.90;;;;;;5037491;28;20076;-66
2022/12/27 13:04:56;;;;;;;11.15;1.20;;;7.40;99.90;;;;;;5037513;28;20590;-65
2022/12/27 13:07:59;;;;;;;16.13;1.70;;;7.20;99.90;;;;;;5019459;28;20084;-64
2022/12/27 13:11:03;;;;;;;11.73;1.60;;;7.20;99.90;;;;;;5038518;28;20555;-65
2022/12/27 13:14:01;;;;;;;12.70;1.40;;;7.00;99.90;;;;;;5036170;28;20124;-66
2022/12/27 13:16:30;;;;;;;11.77;1.13;;;6.80;99.90;;;;;;5036178;28;20056;-67
2022/12/27 13:19:18;;;;;;;12.23;2.30;;;6.70;99.90;;;;;;5037564;28;20040;-66
2022/12/27 13:21:46;;;;;;;14.18;1.40;;;6.60;99.90;;;;;;5035907;28;20045;-65
2022/12/27 13:24:42;;;;;;;9.63;1.20;;;6.70;99.90;;;;;;5038062;28;20040;-65
2022/12/27 13:27:11;;;;;;;10.07;1.40;;;6.90;99.90;;;;;;5037382;28;20047;-66
2022/12/27 13:30:15;;;;;;;14.10;1.95;;;6.90;99.90;;;;;;5038033;28;20044;-65
2022/12/27 13:33:07;;;;;;;9.10;1.35;;;7.10;99.90;;;;;;4964206;28;20648;-66
2022/12/27 13:35:45;;;;;;;11.23;1.08;;;7.00;99.90;;;;;;5035181;28;20048;-65
2022/12/27 13:38:58;;;;;;;14.25;1.35;;;7.00;99.90;;;;;;5037250;28;20429;-65
2022/12/27 13:41:51;;;;;;;9.73;1.35;;;6.80;99.90;;;;;;5019161;28;20135;-65
2022/12/27 13:44:31;;;;;;;12.70;1.67;;;6.80;99.90;;;;;;5037508;28;20183;-66
2022/12/27 13:47:30;;;;;;;7.85;1.17;;;6.80;99.90;;;;;;5037326;28;20052;-65
2022/12/27 13:50:39;;;;;;;8.02;1.10;;;6.70;99.90;;;;;;5021433;28;20127;-66
2022/12/27 13:53:43;;;;;;;13.25;1.80;;;6.60;99.90;;;;;;5038450;28;20073;-65
2022/12/27 13:56:36;;;;;;;14.80;2.28;;;6.40;99.90;;;;;;4963272;28;20046;-65
2022/12/27 13:59:28;;;;;;;10.25;1.48;;;6.40;99.90;;;;;;5037231;28;20128;-66
2022/12/27 14:02:11;;;;;;;15.23;1.50;;;6.20;99.90;;;;;;5033574;28;20057;-65
2022/12/27 14:05:01;;;;;;;12.88;1.40;;;6.20;99.90;;;;;;5036897;28;20047;-64
2022/12/27 14:07:36;;;;;;;11.90;1.23;;;6.10;1.00;;;;;;5034319;28;20347;-64
2022/12/27 14:10:08;;;;;;;11.93;1.38;;;6.10;1.00;;;;;;5020467;28;20192;-65
2022/12/27 14:12:58;;;;;;;9.98;1.70;;;5.90;1.00;;;;;;5020333;28;20110;-65
2022/12/27 14:15:49;;;;;;;13.02;2.00;;;5.90;1.00;;;;;;5035126;28;20049;-64
2022/12/27 14:18:29;;;;;;;14.65;1.40;;;5.90;1.00;;;;;;5036993;28;20048;-65
2022/12/27 14:21:15;;;;;;;11.07;2.00;;;6.00;1.00;;;;;;5037073;28;20412;-65
2022/12/27 14:23:59;;;;;;;9.40;2.20;;;5.80;1.00;;;;;;5035848;28;20454;-65
2022/12/27 14:26:24;;;;;;;;;;;5.60;1.00;;;;;;5038186;28;20059;-65
2022/12/27 14:29:11;;;;;;;13.60;2.60;;;5.80;1.00;;;;;;5036823;28;19921;-64
2022/12/27 14:32:07;;;;;;;13.57;2.70;;;5.70;1.00;;;;;;5019741;28;20059;-64
2022/12/27 14:34:36;;;;;;;16.60;2.40;;;5.70;1.00;;;;;;5034198;28;20087;-64
2022/12/27 14:37:44;;;;;;;12.32;2.35;;;5.60;4.10;;;;;;5035520;28;20036;-64
2022/12/27 14:40:32;;;;;;;17.67;3.00;;;5.80;11.40;;;;;;5019331;28;20045;-65
2022/12/27 14:43:23;;;;;;;11.88;2.30;;;5.50;38.30;;;;;;5034896;28;20056;-66
2022/12/27 14:46:25;;;;;;;13.82;2.47;;;5.40;40.50;;;;;;5033908;28;20369;-66
2022/12/27 14:49:02;;;;;;;16.65;2.85;;;5.70;33.70;;;;;;5036645;28;20056;-65
2022/12/27 14:52:05;;;;;;;21.05;4.50;;;5.50;85.80;;;;;;5016751;28;20056;-65
2022/12/27 14:54:52;;;;;;;14.77;5.20;;;5.60;85.50;;;;;;5035300;28;20406;-67
2022/12/27 14:57:29;;;;;;;17.85;3.10;;;5.60;96.70;;;;;;5036730;28;20147;-64
2022/12/27 15:00:17;;;;;;;21.40;4.68;;;5.70;99.90;;;;;;5035778;28;20075;-64
2022/12/27 15:03:05;;;;;;;22.77;6.07;;;5.50;99.90;;;;;;5032154;28;20369;-63
2022/12/27 15:05:45;;;;;;;19.98;3.90;;;5.30;99.90;;;;;;5034818;28;20862;-64
2022/12/27 15:09:00;;;;;;;17.13;6.95;;;5.30;99.90;;;;;;5014718;28;20149;-65
2022/12/27 15:11:37;;;;;;;23.38;8.73;;;5.20;99.90;;;;;;5024837;28;20090;-64
2022/12/27 15:14:09;;;;;;;25.98;11.20;;;5.40;99.90;;;;;;5036480;28;20064;-65
2022/12/27 15:17:07;;;;;;;15.90;4.93;;;4.90;99.90;;;;;;5035418;28;20116;-65